sensor_id;sensor_type;location;lat;lon;timestamp;P1;durP1;ratioP1;P2;durP2;ratioP2
9823;SDS011;4951;50.778;7.196;2023-12-20T00:01:10;3.67;;;3.37;;
9823;SDS011;4951;50.778;7.196;2023-12-20T00:03:43;5.13;;;4.63;;
9823;SDS011;4951;50.778;7.196;2023-12-20T00:06:31;4.03;;;3.20;;
9823;SDS011;4951;50.778;7.196;2023-12-20T00:12:15;3.57;;;3.27;;
9823;SDS011;4951;50.778;7.196;2023-12-20T00:14:54;4.30;;;3.23;;
9823;SDS011;4951;50.778;7.196;2023-12-20T00:17:48;3.50;;;3.00;;
9823;SDS011;4951;50.778;7.196;2023-12-20T00:20:46;3.17;;;2.90;;
9823;SDS011;4951;50.778;7.196;2023-12-20T00:23:19;4.00;;;3.60;;
9823;SDS011;4951;50.778;7.196;2023-12-20T00:26:00;3.57;;;3.27;;
9823;SDS011;4951;50.778;7.196;2023-12-20T00:28:52;4.30;;;3.30;;
9823;SDS011;4951;50.778;7.196;2023-12-20T00:31:51;3.43;;;3.07;;
9823;SDS011;4951;50.778;7.196;2023-12-20T00:34:34;3.17;;;2.87;;
9823;SDS011;4951;50.778;7.196;2023-12-20T00:40:13;3.40;;;2.60;;
9823;SDS011;4951;50.778;7.196;2023-12-20T00:42:47;3.27;;;2.97;;
9823;SDS011;4951;50.778;7.196;2023-12-20T00:45:34;3.40;;;3.10;;
9823;SDS011;4951;50.778;7.196;2023-12-20T00:48:07;4.97;;;3.20;;
9823;SDS011;4951;50.778;7.196;2023-12-20T00:50:37;3.00;;;2.67;;
9823;SDS011;4951;50.778;7.196;2023-12-20T00:53:23;3.27;;;2.97;;
9823;SDS011;4951;50.778;7.196;2023-12-20T00:56:09;3.70;;;3.33;;
9823;SDS011;4951;50.778;7.196;2023-12-20T00:58:41;3.20;;;2.90;;
9823;SDS011;4951;50.778;7.196;2023-12-20T01:01:18;3.80;;;3.50;;
9823;SDS011;4951;50.778;7.196;2023-12-20T01:03:51;5.17;;;3.17;;
9823;SDS011;4951;50.778;7.196;2023-12-20T01:06:24;3.80;;;3.50;;
9823;SDS011;4951;50.778;7.196;2023-12-20T01:09:12;3.63;;;3.33;;
9823;SDS011;4951;50.778;7.196;2023-12-20T01:11:54;3.57;;;3.27;;
9823;SDS011;4951;50.778;7.196;2023-12-20T01:14:47;3.33;;;3.03;;
9823;SDS011;4951;50.778;7.196;2023-12-20T01:17:20;5.73;;;4.80;;
9823;SDS011;4951;50.778;7.196;2023-12-20T01:19:54;8.30;;;6.43;;
9823;SDS011;4951;50.778;7.196;2023-12-20T01:22:28;4.00;;;3.60;;
9823;SDS011;4951;50.778;7.196;2023-12-20T01:25:13;6.97;;;5.87;;
9823;SDS011;4951;50.778;7.196;2023-12-20T01:27:41;5.60;;;5.00;;
9823;SDS011;4951;50.778;7.196;2023-12-20T01:30:14;8.20;;;6.97;;
9823;SDS011;4951;50.778;7.196;2023-12-20T01:32:44;9.13;;;7.90;;
9823;SDS011;4951;50.778;7.196;2023-12-20T01:35:19;12.10;;;7.43;;
9823;SDS011;4951;50.778;7.196;2023-12-20T01:38:08;11.67;;;8.53;;
9823;SDS011;4951;50.778;7.196;2023-12-20T01:40:42;9.73;;;8.77;;
9823;SDS011;4951;50.778;7.196;2023-12-20T01:43:24;14.17;;;8.90;;
9823;SDS011;4951;50.778;7.196;2023-12-20T01:46:10;11.03;;;9.43;;
9823;SDS011;4951;50.778;7.196;2023-12-20T01:48:47;14.57;;;10.40;;
9823;SDS011;4951;50.778;7.196;2023-12-20T01:51:23;10.93;;;9.80;;
9823;SDS011;4951;50.778;7.196;2023-12-20T01:54:01;19.63;;;12.80;;
9823;SDS011;4951;50.778;7.196;2023-12-20T01:56:45;14.10;;;10.47;;
9823;SDS011;4951;50.778;7.196;2023-12-20T01:59:22;18.53;;;12.90;;
9823;SDS011;4951;50.778;7.196;2023-12-20T02:01:58;13.70;;;10.03;;
9823;SDS011;4951;50.778;7.196;2023-12-20T02:04:52;17.47;;;11.83;;
9823;SDS011;4951;50.778;7.196;2023-12-20T02:07:43;8.60;;;7.70;;
9823;SDS011;4951;50.778;7.196;2023-12-20T02:10:17;11.23;;;9.10;;
9823;SDS011;4951;50.778;7.196;2023-12-20T02:13:00;16.47;;;11.60;;
9823;SDS011;4951;50.778;7.196;2023-12-20T02:15:46;18.27;;;12.93;;
9823;SDS011;4951;50.778;7.196;2023-12-20T02:18:19;13.07;;;9.47;;
9823;SDS011;4951;50.778;7.196;2023-12-20T02:21:08;12.33;;;8.87;;
9823;SDS011;4951;50.778;7.196;2023-12-20T02:23:49;18.87;;;12.53;;
9823;SDS011;4951;50.778;7.196;2023-12-20T02:30:21;12.70;;;9.10;;
9823;SDS011;4951;50.778;7.196;2023-12-20T02:32:50;15.93;;;10.57;;
9823;SDS011;4951;50.778;7.196;2023-12-20T02:35:31;14.47;;;10.57;;
9823;SDS011;4951;50.778;7.196;2023-12-20T02:38:08;11.87;;;9.23;;
9823;SDS011;4951;50.778;7.196;2023-12-20T02:40:43;14.20;;;9.60;;
9823;SDS011;4951;50.778;7.196;2023-12-20T02:43:18;16.57;;;9.20;;
9823;SDS011;4951;50.778;7.196;2023-12-20T02:45:51;17.87;;;8.50;;
9823;SDS011;4951;50.778;7.196;2023-12-20T02:48:25;15.20;;;7.57;;
9823;SDS011;4951;50.778;7.196;2023-12-20T02:50:53;15.83;;;8.67;;
9823;SDS011;4951;50.778;7.196;2023-12-20T02:53:22;15.50;;;7.17;;
9823;SDS011;4951;50.778;7.196;2023-12-20T02:55:53;13.27;;;6.43;;
9823;SDS011;4951;50.778;7.196;2023-12-20T02:58:27;11.77;;;5.43;;
9823;SDS011;4951;50.778;7.196;2023-12-20T03:01:14;14.87;;;5.43;;
9823;SDS011;4951;50.778;7.196;2023-12-20T03:03:54;17.57;;;6.17;;
9823;SDS011;4951;50.778;7.196;2023-12-20T03:06:26;19.10;;;5.87;;
9823;SDS011;4951;50.778;7.196;2023-12-20T03:09:07;14.93;;;4.67;;
9823;SDS011;4951;50.778;7.196;2023-12-20T03:11:46;11.73;;;4.53;;
9823;SDS011;4951;50.778;7.196;2023-12-20T03:14:33;12.47;;;3.37;;
9823;SDS011;4951;50.778;7.196;2023-12-20T03:17:24;11.47;;;3.77;;
9823;SDS011;4951;50.778;7.196;2023-12-20T03:20:15;12.43;;;3.77;;
9823;SDS011;4951;50.778;7.196;2023-12-20T03:23:05;10.77;;;3.20;;
9823;SDS011;4951;50.778;7.196;2023-12-20T03:25:48;10.60;;;3.07;;
9823;SDS011;4951;50.778;7.196;2023-12-20T03:28:34;16.20;;;3.37;;
9823;SDS011;4951;50.778;7.196;2023-12-20T03:31:18;10.00;;;3.70;;
9823;SDS011;4951;50.778;7.196;2023-12-20T03:34:04;10.80;;;3.60;;
9823;SDS011;4951;50.778;7.196;2023-12-20T03:36:57;10.50;;;3.07;;
9823;SDS011;4951;50.778;7.196;2023-12-20T03:39:35;10.67;;;3.57;;
9823;SDS011;4951;50.778;7.196;2023-12-20T03:42:24;14.50;;;3.60;;
9823;SDS011;4951;50.778;7.196;2023-12-20T03:45:03;10.03;;;3.07;;
9823;SDS011;4951;50.778;7.196;2023-12-20T03:47:55;12.73;;;3.30;;
9823;SDS011;4951;50.778;7.196;2023-12-20T03:53:46;16.70;;;3.37;;
9823;SDS011;4951;50.778;7.196;2023-12-20T03:56:32;13.87;;;3.70;;
9823;SDS011;4951;50.778;7.196;2023-12-20T03:59:34;7.40;;;3.03;;
9823;SDS011;4951;50.778;7.196;2023-12-20T04:02:06;10.70;;;3.90;;
9823;SDS011;4951;50.778;7.196;2023-12-20T04:04:55;19.27;;;4.27;;
9823;SDS011;4951;50.778;7.196;2023-12-20T04:07:54;13.40;;;3.70;;
9823;SDS011;4951;50.778;7.196;2023-12-20T04:10:37;15.10;;;3.60;;
9823;SDS011;4951;50.778;7.196;2023-12-20T04:13:12;12.67;;;4.27;;
9823;SDS011;4951;50.778;7.196;2023-12-20T04:15:59;14.40;;;3.97;;
9823;SDS011;4951;50.778;7.196;2023-12-20T04:18:49;14.47;;;5.30;;
9823;SDS011;4951;50.778;7.196;2023-12-20T04:21:36;15.97;;;4.37;;
9823;SDS011;4951;50.778;7.196;2023-12-20T04:24:21;18.70;;;5.00;;
9823;SDS011;4951;50.778;7.196;2023-12-20T04:27:08;14.90;;;4.53;;
9823;SDS011;4951;50.778;7.196;2023-12-20T04:29:48;14.97;;;4.10;;
9823;SDS011;4951;50.778;7.196;2023-12-20T04:32:36;13.20;;;4.30;;
9823;SDS011;4951;50.778;7.196;2023-12-20T04:35:24;12.20;;;3.93;;
9823;SDS011;4951;50.778;7.196;2023-12-20T04:38:14;16.10;;;4.23;;
9823;SDS011;4951;50.778;7.196;2023-12-20T04:41:07;14.80;;;4.03;;
9823;SDS011;4951;50.778;7.196;2023-12-20T04:43:54;13.43;;;4.03;;
9823;SDS011;4951;50.778;7.196;2023-12-20T04:46:39;11.97;;;3.87;;
9823;SDS011;4951;50.778;7.196;2023-12-20T04:49:14;14.70;;;4.50;;
9823;SDS011;4951;50.778;7.196;2023-12-20T04:52:02;12.67;;;4.27;;
9823;SDS011;4951;50.778;7.196;2023-12-20T04:54:41;11.87;;;4.57;;
9823;SDS011;4951;50.778;7.196;2023-12-20T04:57:17;14.17;;;4.53;;
9823;SDS011;4951;50.778;7.196;2023-12-20T05:00:11;16.87;;;5.40;;
9823;SDS011;4951;50.778;7.196;2023-12-20T05:02:54;16.13;;;5.23;;
9823;SDS011;4951;50.778;7.196;2023-12-20T05:05:26;14.13;;;5.00;;
9823;SDS011;4951;50.778;7.196;2023-12-20T05:07:59;19.73;;;5.17;;
9823;SDS011;4951;50.778;7.196;2023-12-20T05:10:34;11.10;;;4.30;;
9823;SDS011;4951;50.778;7.196;2023-12-20T05:13:04;19.67;;;5.40;;
9823;SDS011;4951;50.778;7.196;2023-12-20T05:15:51;15.47;;;5.00;;
9823;SDS011;4951;50.778;7.196;2023-12-20T05:18:23;14.67;;;5.40;;
9823;SDS011;4951;50.778;7.196;2023-12-20T05:20:56;14.93;;;5.03;;
9823;SDS011;4951;50.778;7.196;2023-12-20T05:23:30;14.93;;;4.67;;
9823;SDS011;4951;50.778;7.196;2023-12-20T05:26:04;18.90;;;5.57;;
9823;SDS011;4951;50.778;7.196;2023-12-20T05:28:35;13.30;;;4.10;;
9823;SDS011;4951;50.778;7.196;2023-12-20T05:31:13;16.23;;;5.30;;
9823;SDS011;4951;50.778;7.196;2023-12-20T05:33:44;14.97;;;4.47;;
9823;SDS011;4951;50.778;7.196;2023-12-20T05:36:30;13.97;;;5.03;;
9823;SDS011;4951;50.778;7.196;2023-12-20T05:39:08;12.13;;;4.70;;
9823;SDS011;4951;50.778;7.196;2023-12-20T05:41:56;15.37;;;4.70;;
9823;SDS011;4951;50.778;7.196;2023-12-20T05:44:38;12.80;;;4.90;;
9823;SDS011;4951;50.778;7.196;2023-12-20T05:47:13;18.73;;;4.87;;
9823;SDS011;4951;50.778;7.196;2023-12-20T05:49:46;13.30;;;4.73;;
9823;SDS011;4951;50.778;7.196;2023-12-20T05:52:19;11.87;;;4.77;;
9823;SDS011;4951;50.778;7.196;2023-12-20T05:55:09;16.70;;;4.93;;
9823;SDS011;4951;50.778;7.196;2023-12-20T05:57:40;17.80;;;5.63;;
9823;SDS011;4951;50.778;7.196;2023-12-20T06:00:20;17.67;;;5.73;;
9823;SDS011;4951;50.778;7.196;2023-12-20T06:03:08;14.77;;;5.10;;
9823;SDS011;4951;50.778;7.196;2023-12-20T06:06:08;14.80;;;5.50;;
9823;SDS011;4951;50.778;7.196;2023-12-20T06:08:49;13.65;;;5.20;;
9823;SDS011;4951;50.778;7.196;2023-12-20T06:11:25;19.57;;;6.13;;
9823;SDS011;4951;50.778;7.196;2023-12-20T06:13:59;10.57;;;4.47;;
9823;SDS011;4951;50.778;7.196;2023-12-20T06:16:45;15.50;;;4.97;;
9823;SDS011;4951;50.778;7.196;2023-12-20T06:19:28;13.10;;;4.63;;
9823;SDS011;4951;50.778;7.196;2023-12-20T06:21:58;14.33;;;5.33;;
9823;SDS011;4951;50.778;7.196;2023-12-20T06:24:40;20.00;;;6.27;;
9823;SDS011;4951;50.778;7.196;2023-12-20T06:27:27;16.03;;;5.33;;
9823;SDS011;4951;50.778;7.196;2023-12-20T06:30:06;18.47;;;5.70;;
9823;SDS011;4951;50.778;7.196;2023-12-20T06:32:51;16.10;;;5.23;;
9823;SDS011;4951;50.778;7.196;2023-12-20T06:35:31;16.87;;;4.90;;
9823;SDS011;4951;50.778;7.196;2023-12-20T06:38:05;17.23;;;4.60;;
9823;SDS011;4951;50.778;7.196;2023-12-20T06:40:35;15.23;;;4.77;;
9823;SDS011;4951;50.778;7.196;2023-12-20T06:43:13;11.47;;;4.43;;
9823;SDS011;4951;50.778;7.196;2023-12-20T06:45:48;14.63;;;4.57;;
9823;SDS011;4951;50.778;7.196;2023-12-20T06:48:36;17.93;;;5.53;;
9823;SDS011;4951;50.778;7.196;2023-12-20T06:51:10;16.03;;;5.07;;
9823;SDS011;4951;50.778;7.196;2023-12-20T06:53:53;11.87;;;4.40;;
9823;SDS011;4951;50.778;7.196;2023-12-20T06:56:28;20.47;;;4.63;;
9823;SDS011;4951;50.778;7.196;2023-12-20T06:59:20;19.43;;;4.80;;
9823;SDS011;4951;50.778;7.196;2023-12-20T07:02:05;15.20;;;4.90;;
9823;SDS011;4951;50.778;7.196;2023-12-20T07:04:48;17.20;;;4.63;;
9823;SDS011;4951;50.778;7.196;2023-12-20T07:07:26;15.87;;;4.50;;
9823;SDS011;4951;50.778;7.196;2023-12-20T07:10:05;13.87;;;4.50;;
9823;SDS011;4951;50.778;7.196;2023-12-20T07:13:07;13.33;;;4.30;;
9823;SDS011;4951;50.778;7.196;2023-12-20T07:15:49;14.60;;;4.47;;
9823;SDS011;4951;50.778;7.196;2023-12-20T07:18:29;13.80;;;4.60;;
9823;SDS011;4951;50.778;7.196;2023-12-20T07:21:06;15.00;;;4.10;;
9823;SDS011;4951;50.778;7.196;2023-12-20T07:23:49;12.47;;;4.47;;
9823;SDS011;4951;50.778;7.196;2023-12-20T07:26:40;16.10;;;4.33;;
9823;SDS011;4951;50.778;7.196;2023-12-20T07:29:23;11.40;;;4.73;;
9823;SDS011;4951;50.778;7.196;2023-12-20T07:31:57;13.43;;;4.30;;
9823;SDS011;4951;50.778;7.196;2023-12-20T07:34:35;15.50;;;4.10;;
9823;SDS011;4951;50.778;7.196;2023-12-20T07:37:14;13.63;;;4.40;;
9823;SDS011;4951;50.778;7.196;2023-12-20T07:39:57;16.30;;;4.13;;
9823;SDS011;4951;50.778;7.196;2023-12-20T07:42:38;15.50;;;4.00;;
9823;SDS011;4951;50.778;7.196;2023-12-20T07:45:20;15.10;;;4.17;;
9823;SDS011;4951;50.778;7.196;2023-12-20T07:48:08;11.60;;;4.17;;
9823;SDS011;4951;50.778;7.196;2023-12-20T07:50:50;17.07;;;4.20;;
9823;SDS011;4951;50.778;7.196;2023-12-20T07:54:07;14.03;;;4.37;;
9823;SDS011;4951;50.778;7.196;2023-12-20T07:57:04;12.13;;;4.07;;
9823;SDS011;4951;50.778;7.196;2023-12-20T07:59:40;14.57;;;4.47;;
9823;SDS011;4951;50.778;7.196;2023-12-20T08:02:15;13.93;;;4.77;;
9823;SDS011;4951;50.778;7.196;2023-12-20T08:04:54;14.27;;;4.17;;
9823;SDS011;4951;50.778;7.196;2023-12-20T08:07:41;16.73;;;3.73;;
9823;SDS011;4951;50.778;7.196;2023-12-20T08:10:21;14.97;;;3.73;;
9823;SDS011;4951;50.778;7.196;2023-12-20T08:13:28;13.43;;;4.30;;
9823;SDS011;4951;50.778;7.196;2023-12-20T08:16:12;14.97;;;4.27;;
9823;SDS011;4951;50.778;7.196;2023-12-20T08:18:47;15.73;;;3.63;;
9823;SDS011;4951;50.778;7.196;2023-12-20T08:21:57;16.07;;;3.57;;
9823;SDS011;4951;50.778;7.196;2023-12-20T08:24:44;13.37;;;3.93;;
9823;SDS011;4951;50.778;7.196;2023-12-20T08:27:15;19.80;;;4.70;;
9823;SDS011;4951;50.778;7.196;2023-12-20T08:30:15;11.23;;;3.63;;
9823;SDS011;4951;50.778;7.196;2023-12-20T08:32:54;13.73;;;4.17;;
9823;SDS011;4951;50.778;7.196;2023-12-20T08:35:44;10.00;;;3.60;;
9823;SDS011;4951;50.778;7.196;2023-12-20T08:38:42;20.90;;;5.00;;
9823;SDS011;4951;50.778;7.196;2023-12-20T08:41:30;16.63;;;4.00;;
9823;SDS011;4951;50.778;7.196;2023-12-20T08:44:26;15.10;;;4.40;;
9823;SDS011;4951;50.778;7.196;2023-12-20T08:47:13;14.37;;;3.93;;
9823;SDS011;4951;50.778;7.196;2023-12-20T08:49:48;14.07;;;4.03;;
9823;SDS011;4951;50.778;7.196;2023-12-20T08:52:23;12.37;;;4.27;;
9823;SDS011;4951;50.778;7.196;2023-12-20T08:57:47;15.23;;;4.53;;
9823;SDS011;4951;50.778;7.196;2023-12-20T09:00:18;12.77;;;3.90;;
9823;SDS011;4951;50.778;7.196;2023-12-20T09:03:07;17.90;;;3.93;;
9823;SDS011;4951;50.778;7.196;2023-12-20T09:05:46;16.97;;;4.00;;
9823;SDS011;4951;50.778;7.196;2023-12-20T09:08:26;10.03;;;4.00;;
9823;SDS011;4951;50.778;7.196;2023-12-20T09:10:57;12.23;;;4.00;;
9823;SDS011;4951;50.778;7.196;2023-12-20T09:13:42;11.30;;;3.73;;
9823;SDS011;4951;50.778;7.196;2023-12-20T09:16:33;13.07;;;3.30;;
9823;SDS011;4951;50.778;7.196;2023-12-20T09:19:06;11.10;;;3.30;;
9823;SDS011;4951;50.778;7.196;2023-12-20T09:21:49;13.93;;;3.57;;
9823;SDS011;4951;50.778;7.196;2023-12-20T09:24:19;12.00;;;3.57;;
9823;SDS011;4951;50.778;7.196;2023-12-20T09:27:01;11.73;;;3.27;;
9823;SDS011;4951;50.778;7.196;2023-12-20T09:29:35;13.33;;;3.87;;
9823;SDS011;4951;50.778;7.196;2023-12-20T09:32:18;13.50;;;4.10;;
9823;SDS011;4951;50.778;7.196;2023-12-20T09:34:53;11.13;;;3.43;;
9823;SDS011;4951;50.778;7.196;2023-12-20T09:37:34;12.33;;;3.60;;
9823;SDS011;4951;50.778;7.196;2023-12-20T09:40:06;12.67;;;3.47;;
9823;SDS011;4951;50.778;7.196;2023-12-20T09:42:57;8.97;;;3.50;;
9823;SDS011;4951;50.778;7.196;2023-12-20T09:45:42;16.60;;;4.53;;
9823;SDS011;4951;50.778;7.196;2023-12-20T09:48:23;13.10;;;3.20;;
9823;SDS011;4951;50.778;7.196;2023-12-20T09:50:57;10.40;;;3.20;;
9823;SDS011;4951;50.778;7.196;2023-12-20T09:53:37;13.73;;;3.40;;
9823;SDS011;4951;50.778;7.196;2023-12-20T09:56:27;13.20;;;3.67;;
9823;SDS011;4951;50.778;7.196;2023-12-20T10:02:03;10.47;;;3.20;;
9823;SDS011;4951;50.778;7.196;2023-12-20T10:04:44;16.43;;;3.43;;
9823;SDS011;4951;50.778;7.196;2023-12-20T10:07:25;11.00;;;3.17;;
9823;SDS011;4951;50.778;7.196;2023-12-20T10:10:07;12.73;;;3.30;;
9823;SDS011;4951;50.778;7.196;2023-12-20T10:12:41;13.50;;;3.93;;
9823;SDS011;4951;50.778;7.196;2023-12-20T10:15:34;9.63;;;3.17;;
9823;SDS011;4951;50.778;7.196;2023-12-20T10:18:29;15.93;;;3.63;;
9823;SDS011;4951;50.778;7.196;2023-12-20T10:21:21;13.43;;;3.53;;
9823;SDS011;4951;50.778;7.196;2023-12-20T10:24:01;11.57;;;3.70;;
9823;SDS011;4951;50.778;7.196;2023-12-20T10:27:01;12.17;;;3.43;;
9823;SDS011;4951;50.778;7.196;2023-12-20T10:29:49;9.93;;;3.57;;
9823;SDS011;4951;50.778;7.196;2023-12-20T10:32:27;15.47;;;4.20;;
9823;SDS011;4951;50.778;7.196;2023-12-20T10:35:08;9.63;;;3.10;;
9823;SDS011;4951;50.778;7.196;2023-12-20T10:37:49;9.63;;;3.67;;
9823;SDS011;4951;50.778;7.196;2023-12-20T10:40:28;14.00;;;3.57;;
9823;SDS011;4951;50.778;7.196;2023-12-20T10:43:20;8.13;;;2.83;;
9823;SDS011;4951;50.778;7.196;2023-12-20T10:45:54;6.13;;;2.93;;
9823;SDS011;4951;50.778;7.196;2023-12-20T10:48:31;14.67;;;3.73;;
9823;SDS011;4951;50.778;7.196;2023-12-20T10:51:19;11.93;;;3.50;;
9823;SDS011;4951;50.778;7.196;2023-12-20T10:54:03;8.67;;;3.10;;
9823;SDS011;4951;50.778;7.196;2023-12-20T10:56:47;14.40;;;3.50;;
9823;SDS011;4951;50.778;7.196;2023-12-20T10:59:27;11.10;;;3.07;;
9823;SDS011;4951;50.778;7.196;2023-12-20T11:02:11;7.60;;;3.10;;
9823;SDS011;4951;50.778;7.196;2023-12-20T11:05:02;10.50;;;4.07;;
9823;SDS011;4951;50.778;7.196;2023-12-20T11:08:06;7.10;;;2.87;;
9823;SDS011;4951;50.778;7.196;2023-12-20T11:10:48;8.43;;;3.03;;
9823;SDS011;4951;50.778;7.196;2023-12-20T11:13:34;15.43;;;3.63;;
9823;SDS011;4951;50.778;7.196;2023-12-20T11:16:23;11.37;;;3.50;;
9823;SDS011;4951;50.778;7.196;2023-12-20T11:18:55;11.43;;;3.77;;
9823;SDS011;4951;50.778;7.196;2023-12-20T11:21:31;13.80;;;3.60;;
9823;SDS011;4951;50.778;7.196;2023-12-20T11:24:23;11.27;;;3.20;;
9823;SDS011;4951;50.778;7.196;2023-12-20T11:27:01;10.27;;;3.37;;
9823;SDS011;4951;50.778;7.196;2023-12-20T11:29:39;10.57;;;3.50;;
9823;SDS011;4951;50.778;7.196;2023-12-20T11:32:28;10.23;;;3.83;;
9823;SDS011;4951;50.778;7.196;2023-12-20T11:34:59;12.57;;;3.73;;
9823;SDS011;4951;50.778;7.196;2023-12-20T11:37:57;12.47;;;3.23;;
9823;SDS011;4951;50.778;7.196;2023-12-20T11:40:38;11.63;;;3.30;;
9823;SDS011;4951;50.778;7.196;2023-12-20T11:43:14;13.20;;;3.50;;
9823;SDS011;4951;50.778;7.196;2023-12-20T11:46:05;12.53;;;3.43;;
9823;SDS011;4951;50.778;7.196;2023-12-20T11:48:42;12.13;;;3.47;;
9823;SDS011;4951;50.778;7.196;2023-12-20T11:51:17;13.03;;;4.00;;
9823;SDS011;4951;50.778;7.196;2023-12-20T11:54:34;10.20;;;3.77;;
9823;SDS011;4951;50.778;7.196;2023-12-20T11:57:08;13.00;;;3.70;;
9823;SDS011;4951;50.778;7.196;2023-12-20T11:59:40;11.40;;;3.27;;
9823;SDS011;4951;50.778;7.196;2023-12-20T12:02:15;10.10;;;3.77;;
9823;SDS011;4951;50.778;7.196;2023-12-20T12:05:06;13.43;;;3.47;;
9823;SDS011;4951;50.778;7.196;2023-12-20T12:07:41;12.57;;;3.30;;
9823;SDS011;4951;50.778;7.196;2023-12-20T12:10:18;9.13;;;3.30;;
9823;SDS011;4951;50.778;7.196;2023-12-20T12:12:58;14.13;;;3.50;;
9823;SDS011;4951;50.778;7.196;2023-12-20T12:15:34;12.77;;;3.83;;
9823;SDS011;4951;50.778;7.196;2023-12-20T12:18:19;12.33;;;3.70;;
9823;SDS011;4951;50.778;7.196;2023-12-20T12:20:59;7.77;;;3.30;;
9823;SDS011;4951;50.778;7.196;2023-12-20T12:23:32;13.10;;;3.60;;
9823;SDS011;4951;50.778;7.196;2023-12-20T12:26:07;10.77;;;3.10;;
9823;SDS011;4951;50.778;7.196;2023-12-20T12:28:47;8.80;;;2.90;;
9823;SDS011;4951;50.778;7.196;2023-12-20T12:31:35;10.47;;;3.23;;
9823;SDS011;4951;50.778;7.196;2023-12-20T12:34:12;9.03;;;3.10;;
9823;SDS011;4951;50.778;7.196;2023-12-20T12:37:00;11.70;;;3.07;;
9823;SDS011;4951;50.778;7.196;2023-12-20T12:39:39;13.70;;;3.77;;
9823;SDS011;4951;50.778;7.196;2023-12-20T12:42:30;13.20;;;3.93;;
9823;SDS011;4951;50.778;7.196;2023-12-20T12:45:10;12.47;;;3.50;;
9823;SDS011;4951;50.778;7.196;2023-12-20T12:47:53;9.53;;;3.03;;
9823;SDS011;4951;50.778;7.196;2023-12-20T12:50:26;11.67;;;3.60;;
9823;SDS011;4951;50.778;7.196;2023-12-20T12:53:09;13.30;;;3.40;;
9823;SDS011;4951;50.778;7.196;2023-12-20T12:55:45;11.33;;;3.17;;
9823;SDS011;4951;50.778;7.196;2023-12-20T12:58:24;9.73;;;3.37;;
9823;SDS011;4951;50.778;7.196;2023-12-20T13:00:56;11.57;;;3.23;;
9823;SDS011;4951;50.778;7.196;2023-12-20T13:03:48;8.13;;;3.00;;
9823;SDS011;4951;50.778;7.196;2023-12-20T13:06:41;9.93;;;3.33;;
9823;SDS011;4951;50.778;7.196;2023-12-20T13:09:41;8.37;;;2.90;;
9823;SDS011;4951;50.778;7.196;2023-12-20T13:12:21;7.83;;;3.23;;
9823;SDS011;4951;50.778;7.196;2023-12-20T13:15:32;10.73;;;3.40;;
9823;SDS011;4951;50.778;7.196;2023-12-20T13:18:04;11.80;;;3.73;;
9823;SDS011;4951;50.778;7.196;2023-12-20T13:21:23;12.47;;;3.57;;
9823;SDS011;4951;50.778;7.196;2023-12-20T13:23:58;13.77;;;3.57;;
9823;SDS011;4951;50.778;7.196;2023-12-20T13:26:35;11.23;;;3.57;;
9823;SDS011;4951;50.778;7.196;2023-12-20T13:29:20;9.73;;;3.27;;
9823;SDS011;4951;50.778;7.196;2023-12-20T13:31:55;14.40;;;3.60;;
9823;SDS011;4951;50.778;7.196;2023-12-20T13:34:38;8.80;;;3.47;;
9823;SDS011;4951;50.778;7.196;2023-12-20T13:37:41;10.90;;;3.40;;
9823;SDS011;4951;50.778;7.196;2023-12-20T13:40:21;13.73;;;3.40;;
9823;SDS011;4951;50.778;7.196;2023-12-20T13:43:06;9.90;;;3.50;;
9823;SDS011;4951;50.778;7.196;2023-12-20T13:45:47;14.53;;;3.53;;
9823;SDS011;4951;50.778;7.196;2023-12-20T13:48:23;8.70;;;3.70;;
9823;SDS011;4951;50.778;7.196;2023-12-20T13:50:57;11.07;;;3.53;;
9823;SDS011;4951;50.778;7.196;2023-12-20T13:53:54;15.77;;;3.93;;
9823;SDS011;4951;50.778;7.196;2023-12-20T13:56:28;13.80;;;4.53;;
9823;SDS011;4951;50.778;7.196;2023-12-20T13:58:58;12.93;;;4.07;;
9823;SDS011;4951;50.778;7.196;2023-12-20T14:01:30;10.03;;;3.73;;
9823;SDS011;4951;50.778;7.196;2023-12-20T14:06:52;12.07;;;4.23;;
9823;SDS011;4951;50.778;7.196;2023-12-20T14:09:24;13.80;;;4.10;;
9823;SDS011;4951;50.778;7.196;2023-12-20T14:12:04;7.73;;;3.30;;
9823;SDS011;4951;50.778;7.196;2023-12-20T14:14:42;9.33;;;3.33;;
9823;SDS011;4951;50.778;7.196;2023-12-20T14:17:16;8.37;;;4.00;;
9823;SDS011;4951;50.778;7.196;2023-12-20T14:19:59;8.93;;;3.57;;
9823;SDS011;4951;50.778;7.196;2023-12-20T14:23:08;13.63;;;4.33;;
9823;SDS011;4951;50.778;7.196;2023-12-20T14:25:45;11.70;;;4.00;;
9823;SDS011;4951;50.778;7.196;2023-12-20T14:28:37;11.47;;;3.87;;
9823;SDS011;4951;50.778;7.196;2023-12-20T14:31:09;9.93;;;3.80;;
9823;SDS011;4951;50.778;7.196;2023-12-20T14:33:45;14.93;;;4.67;;
9823;SDS011;4951;50.778;7.196;2023-12-20T14:36:25;6.97;;;3.03;;
9823;SDS011;4951;50.778;7.196;2023-12-20T14:39:06;7.33;;;3.30;;
9823;SDS011;4951;50.778;7.196;2023-12-20T14:41:55;9.07;;;3.33;;
9823;SDS011;4951;50.778;7.196;2023-12-20T14:44:35;8.17;;;3.23;;
9823;SDS011;4951;50.778;7.196;2023-12-20T14:47:05;5.87;;;2.73;;
9823;SDS011;4951;50.778;7.196;2023-12-20T14:49:45;7.07;;;2.70;;
9823;SDS011;4951;50.778;7.196;2023-12-20T14:52:25;5.03;;;2.57;;
9823;SDS011;4951;50.778;7.196;2023-12-20T14:57:47;3.77;;;2.10;;
9823;SDS011;4951;50.778;7.196;2023-12-20T15:01:06;5.93;;;2.20;;
9823;SDS011;4951;50.778;7.196;2023-12-20T15:03:47;4.07;;;1.90;;
9823;SDS011;4951;50.778;7.196;2023-12-20T15:06:41;6.17;;;2.17;;
9823;SDS011;4951;50.778;7.196;2023-12-20T15:09:22;5.70;;;2.30;;
9823;SDS011;4951;50.778;7.196;2023-12-20T15:12:27;6.13;;;2.27;;
9823;SDS011;4951;50.778;7.196;2023-12-20T15:15:00;3.97;;;1.90;;
9823;SDS011;4951;50.778;7.196;2023-12-20T15:18:01;5.57;;;2.23;;
9823;SDS011;4951;50.778;7.196;2023-12-20T15:20:35;6.27;;;2.50;;
9823;SDS011;4951;50.778;7.196;2023-12-20T15:23:17;7.63;;;2.97;;
9823;SDS011;4951;50.778;7.196;2023-12-20T15:26:00;6.60;;;3.00;;
9823;SDS011;4951;50.778;7.196;2023-12-20T15:28:31;4.57;;;2.07;;
9823;SDS011;4951;50.778;7.196;2023-12-20T15:31:22;4.10;;;2.23;;
9823;SDS011;4951;50.778;7.196;2023-12-20T15:34:17;5.53;;;2.30;;
9823;SDS011;4951;50.778;7.196;2023-12-20T15:37:08;5.47;;;2.50;;
9823;SDS011;4951;50.778;7.196;2023-12-20T15:39:47;6.27;;;2.40;;
9823;SDS011;4951;50.778;7.196;2023-12-20T15:42:37;5.03;;;2.20;;
9823;SDS011;4951;50.778;7.196;2023-12-20T15:45:18;7.90;;;2.73;;
9823;SDS011;4951;50.778;7.196;2023-12-20T15:47:58;7.23;;;2.57;;
9823;SDS011;4951;50.778;7.196;2023-12-20T15:50:38;5.60;;;2.73;;
9823;SDS011;4951;50.778;7.196;2023-12-20T15:53:46;5.17;;;2.40;;
9823;SDS011;4951;50.778;7.196;2023-12-20T15:56:44;8.33;;;2.93;;
9823;SDS011;4951;50.778;7.196;2023-12-20T15:59:16;6.03;;;2.80;;
9823;SDS011;4951;50.778;7.196;2023-12-20T16:01:53;10.73;;;3.10;;
9823;SDS011;4951;50.778;7.196;2023-12-20T16:04:34;8.70;;;3.10;;
9823;SDS011;4951;50.778;7.196;2023-12-20T16:07:23;7.70;;;2.80;;
9823;SDS011;4951;50.778;7.196;2023-12-20T16:09:54;7.50;;;3.40;;
9823;SDS011;4951;50.778;7.196;2023-12-20T16:12:34;7.83;;;2.43;;
9823;SDS011;4951;50.778;7.196;2023-12-20T16:15:15;9.40;;;3.30;;
9823;SDS011;4951;50.778;7.196;2023-12-20T16:18:00;12.83;;;3.30;;
9823;SDS011;4951;50.778;7.196;2023-12-20T16:20:45;9.33;;;3.40;;
9823;SDS011;4951;50.778;7.196;2023-12-20T16:23:19;10.80;;;3.00;;
9823;SDS011;4951;50.778;7.196;2023-12-20T16:25:49;12.23;;;3.33;;
9823;SDS011;4951;50.778;7.196;2023-12-20T16:28:18;10.30;;;3.40;;
9823;SDS011;4951;50.778;7.196;2023-12-20T16:30:53;8.43;;;3.40;;
9823;SDS011;4951;50.778;7.196;2023-12-20T16:33:28;10.80;;;3.70;;
9823;SDS011;4951;50.778;7.196;2023-12-20T16:36:13;6.90;;;3.37;;
9823;SDS011;4951;50.778;7.196;2023-12-20T16:38:58;11.47;;;3.97;;
9823;SDS011;4951;50.778;7.196;2023-12-20T16:41:45;9.57;;;3.03;;
9823;SDS011;4951;50.778;7.196;2023-12-20T16:44:33;8.73;;;3.20;;
9823;SDS011;4951;50.778;7.196;2023-12-20T16:47:14;8.03;;;3.47;;
9823;SDS011;4951;50.778;7.196;2023-12-20T16:50:02;8.37;;;3.40;;
9823;SDS011;4951;50.778;7.196;2023-12-20T16:52:55;10.70;;;3.77;;
9823;SDS011;4951;50.778;7.196;2023-12-20T16:55:43;9.33;;;3.47;;
9823;SDS011;4951;50.778;7.196;2023-12-20T16:58:21;9.83;;;3.50;;
9823;SDS011;4951;50.778;7.196;2023-12-20T17:01:09;8.77;;;3.90;;